Time;durP1;ratioP1;P1;durP2;ratioP2;P2;SDS_P1;SDS_P2;PMS_P1;PMS_P2;Temp;Humidity;BMP_temperature;BMP_pressure;BME280_temperature;BME280_humidity;BME280_pressure;Samples;Min_cycle;Max_cycle;Signal;HPM_P1;HPM_P2
2020/12/30 00:00:36;;;;;;;117.00;44.05;;;;;;;-1.02;100.00;99680.25;4950378;28;20564;-65
2020/12/30 00:03:03;;;;;;;97.57;39.55;;;;;;;-1.00;100.00;99681.00;4948928;29;20504;-65
2020/12/30 00:05:28;;;;;;;88.45;35.85;;;;;;;-0.99;100.00;99676.56;4950517;28;20428;-66
2020/12/30 00:07:54;;;;;;;98.45;35.95;;;;;;;-1.01;100.00;99678.44;4949426;28;20035;-65
2020/12/30 00:10:22;;;;;;;99.72;37.35;;;;;;;-1.05;100.00;99680.50;4950086;29;20035;-65
2020/12/30 00:12:48;;;;;;;84.88;31.92;;;;;;;-1.00;100.00;99682.75;4949823;28;20062;-65
2020/12/30 00:15:15;;;;;;;92.43;35.83;;;;;;;-0.93;100.00;99682.16;4949760;28;20062;-65
2020/12/30 00:17:41;;;;;;;92.03;35.20;;;;;;;-0.85;100.00;99679.78;4948618;29;20546;-65
2020/12/30 00:20:09;;;;;;;93.35;34.45;;;;;;;-0.83;100.00;99680.47;4949579;28;20043;-65
2020/12/30 00:22:36;;;;;;;92.28;36.75;;;;;;;-0.83;100.00;99677.00;4950103;28;20031;-65
2020/12/30 00:25:03;;;;;;;85.43;34.55;;;;;;;-0.85;100.00;99678.94;4949720;29;20027;-65
2020/12/30 00:27:28;;;;;;;105.35;38.38;;;;;;;-0.88;100.00;99674.75;4949607;29;20035;-65
2020/12/30 00:29:54;;;;;;;103.22;39.85;;;;;;;-0.88;100.00;99676.53;4949531;28;20042;-65
2020/12/30 00:32:19;;;;;;;90.35;35.22;;;;;;;-0.90;100.00;99671.41;4937172;28;20027;-65
2020/12/30 00:34:45;;;;;;;84.45;32.58;;;;;;;-0.89;100.00;99672.22;4949433;29;20027;-66
2020/12/30 00:37:10;;;;;;;86.53;31.83;;;;;;;-0.94;100.00;99666.50;4948980;29;20359;-65
2020/12/30 00:39:36;;;;;;;82.07;32.10;;;;;;;-0.98;100.00;99672.97;4949007;28;20038;-65
2020/12/30 00:42:02;;;;;;;89.97;33.08;;;;;;;-0.94;100.00;99669.13;4949532;28;20031;-65
2020/12/30 00:44:28;;;;;;;96.95;33.53;;;;;;;-0.89;100.00;99677.50;4949032;28;20023;-65
2020/12/30 00:46:55;;;;;;;90.00;34.47;;;;;;;-0.85;100.00;99684.19;4948596;29;20039;-66
2020/12/30 00:49:21;;;;;;;92.95;33.63;;;;;;;-0.80;100.00;99682.88;4949358;29;20031;-65
2020/12/30 00:51:54;;;;;;;86.10;32.00;;;;;;;-0.74;100.00;99681.53;4949594;28;20035;-66
2020/12/30 00:54:21;;;;;;;86.85;33.58;;;;;;;-0.69;100.00;99689.09;4949286;29;20032;-65
2020/12/30 00:56:47;;;;;;;78.43;30.05;;;;;;;-0.68;100.00;99690.75;4949034;28;20515;-65
2020/12/30 00:59:19;;;;;;;68.82;28.80;;;;;;;-0.72;100.00;99689.31;4948678;28;20440;-65
2020/12/30 01:01:51;;;;;;;62.17;25.80;;;;;;;-0.77;100.00;99696.75;4950543;28;20042;-65
2020/12/30 01:04:18;;;;;;;66.47;27.05;;;;;;;-0.74;100.00;99704.41;4953049;29;20035;-65
2020/12/30 01:06:51;;;;;;;75.40;28.45;;;;;;;-0.65;100.00;99703.69;4952466;29;20086;-65
2020/12/30 01:09:16;;;;;;;80.13;29.70;;;;;;;-0.43;100.00;99714.16;4953294;28;20410;-65
2020/12/30 01:11:42;;;;;;;82.13;29.92;;;;;;;-0.21;100.00;99717.69;4952554;29;20027;-65
2020/12/30 01:14:08;;;;;;;90.15;31.50;;;;;;;0.10;100.00;99724.78;4952992;29;20042;-65
2020/12/30 01:16:33;;;;;;;89.95;31.40;;;;;;;0.25;100.00;99728.78;4951937;29;20106;-65
2020/12/30 01:18:59;;;;;;;83.35;32.20;;;;;;;0.31;100.00;99732.69;4953169;29;20039;-66
2020/12/30 01:21:24;;;;;;;85.60;30.75;;;;;;;0.33;100.00;99732.56;4952452;28;20118;-65
2020/12/30 01:23:50;;;;;;;72.68;28.23;;;;;;;0.34;100.00;99737.72;4953193;28;20392;-65
2020/12/30 01:26:15;;;;;;;78.38;29.70;;;;;;;0.35;100.00;99742.03;4951739;28;20094;-65
2020/12/30 01:28:42;;;;;;;76.72;28.98;;;;;;;0.38;100.00;99736.50;4952920;28;20030;-65
2020/12/30 01:31:07;;;;;;;71.53;27.77;;;;;;;0.40;100.00;99739.00;4947363;29;20388;-65
2020/12/30 01:33:33;;;;;;;65.35;25.83;;;;;;;0.36;100.00;99735.78;4945065;29;20032;-65
2020/12/30 01:35:58;;;;;;;67.55;26.27;;;;;;;0.27;100.00;99738.34;4952191;28;20450;-65
2020/12/30 01:38:24;;;;;;;60.90;24.85;;;;;;;0.16;100.00;99740.09;4952365;28;20170;-67
2020/12/30 01:40:55;;;;;;;63.67;24.45;;;;;;;0.08;100.00;99744.31;4975186;23;20066;-80
2020/12/30 01:43:21;;;;;;;62.83;24.23;;;;;;;0.03;100.00;99743.84;4975247;28;20034;-80
2020/12/30 01:45:49;;;;;;;81.40;27.38;;;;;;;-0.01;100.00;99753.81;4971737;28;20035;-79
2020/12/30 01:48:17;;;;;;;66.85;25.20;;;;;;;-0.04;100.00;99760.19;4955284;28;20035;-80
2020/12/30 01:50:43;;;;;;;87.13;29.25;;;;;;;-0.04;100.00;99754.91;4956462;28;20055;-78
2020/12/30 01:53:09;;;;;;;73.22;28.55;;;;;;;-0.03;100.00;99766.28;4971638;28;20027;-80
2020/12/30 01:55:39;;;;;;;78.85;28.08;;;;;;;0.02;100.00;99765.91;4974194;28;20547;-79
2020/12/30 01:58:05;;;;;;;81.13;28.17;;;;;;;0.07;100.00;99771.66;4956923;28;20027;-79
2020/12/30 02:00:32;;;;;;;72.78;27.38;;;;;;;0.11;100.00;99773.91;4959009;28;20401;-80
2020/12/30 02:03:01;;;;;;;85.85;30.35;;;;;;;0.17;100.00;99777.84;4960130;28;20497;-80
2020/12/30 02:05:30;;;;;;;75.88;27.45;;;;;;;0.22;100.00;99778.31;4962941;28;20041;-80
2020/12/30 02:07:58;;;;;;;75.05;27.58;;;;;;;0.23;100.00;99778.16;4961303;28;20035;-79
2020/12/30 02:10:26;;;;;;;58.00;25.65;;;;;;;0.20;100.00;99782.84;4976827;28;20090;-80
2020/12/30 02:12:53;;;;;;;64.45;25.58;;;;;;;0.22;100.00;99775.66;4944684;29;20031;-80
2020/12/30 02:15:23;;;;;;;62.42;25.95;;;;;;;0.22;100.00;99773.88;4977306;28;20091;-80
2020/12/30 02:17:49;;;;;;;72.38;27.00;;;;;;;0.22;100.00;99779.13;4961602;28;20035;-79
2020/12/30 02:20:14;;;;;;;71.63;26.45;;;;;;;0.27;100.00;99783.22;4962228;28;20033;-80
2020/12/30 02:22:43;;;;;;;88.63;30.95;;;;;;;0.30;100.00;99788.22;4959721;28;20054;-80
2020/12/30 02:25:08;;;;;;;71.68;25.95;;;;;;;0.31;100.00;99784.63;4960781;28;20620;-80
2020/12/30 02:27:34;;;;;;;68.22;26.48;;;;;;;0.34;100.00;99781.72;4974825;28;20481;-80
2020/12/30 02:30:00;;;;;;;75.13;27.92;;;;;;;0.34;100.00;99784.34;4959498;28;20531;-80
2020/12/30 02:32:25;;;;;;;73.20;27.65;;;;;;;0.33;100.00;99785.34;4974900;28;20047;-80
2020/12/30 02:34:51;;;;;;;71.82;26.15;;;;;;;0.30;100.00;99786.41;4960769;28;20034;-80
2020/12/30 02:37:21;;;;;;;75.22;26.58;;;;;;;0.30;100.00;99791.69;4958222;28;20039;-80
2020/12/30 02:39:48;;;;;;;79.07;28.58;;;;;;;0.40;100.00;99794.41;4959871;28;20069;-79
2020/12/30 02:42:21;;;;;;;73.75;25.65;;;;;;;0.45;100.00;99792.22;4960433;28;20489;-80
2020/12/30 02:44:46;;;;;;;78.97;26.67;;;;;;;0.46;100.00;99792.13;4960275;28;20127;-79
2020/12/30 02:47:12;;;;;;;70.72;26.65;;;;;;;0.45;100.00;99790.44;4959289;28;20405;-80
2020/12/30 02:49:38;;;;;;;74.45;24.58;;;;;;;0.45;100.00;99794.84;4974677;28;20047;-80
2020/12/30 02:52:03;;;;;;;70.05;25.58;;;;;;;0.45;100.00;99787.81;4974548;28;20435;-80
2020/12/30 02:54:29;;;;;;;70.55;26.20;;;;;;;0.49;100.00;99802.41;4959082;28;20035;-79
2020/12/30 02:56:55;;;;;;;72.72;25.35;;;;;;;0.50;100.00;99801.47;4974745;28;20054;-79
2020/12/30 02:59:21;;;;;;;74.72;27.20;;;;;;;0.51;100.00;99797.00;4959448;28;20111;-80
2020/12/30 03:01:47;;;;;;;73.88;26.17;;;;;;;0.56;100.00;99810.66;4974384;28;20057;-80
2020/12/30 03:04:13;;;;;;;66.38;25.70;;;;;;;0.62;100.00;99809.31;4957992;28;20027;-80
2020/12/30 03:06:38;;;;;;;71.22;26.75;;;;;;;0.63;100.00;99806.53;4958109;28;20086;-80
2020/12/30 03:09:08;;;;;;;75.03;25.42;;;;;;;0.69;100.00;99810.47;4959212;28;20042;-80
2020/12/30 03:11:34;;;;;;;74.40;26.08;;;;;;;0.70;100.00;99818.28;4957792;28;20028;-79
2020/12/30 03:14:00;;;;;;;86.03;27.85;;;;;;;0.72;100.00;99813.69;4958290;28;20031;-79
2020/12/30 03:16:27;;;;;;;67.78;26.48;;;;;;;0.78;100.00;99825.53;4959061;28;20064;-80
2020/12/30 03:18:53;;;;;;;69.57;25.00;;;;;;;0.85;100.00;99824.03;4953786;28;20718;-80
2020/12/30 03:21:19;;;;;;;74.07;26.10;;;;;;;0.82;100.00;99824.31;4956641;28;20027;-80
2020/12/30 03:23:44;;;;;;;67.47;24.35;;;;;;;0.82;100.00;99819.03;4973181;28;20058;-80
2020/12/30 03:26:10;;;;;;;67.93;24.75;;;;;;;0.82;100.00;99820.84;4973093;28;20381;-80
2020/12/30 03:28:35;;;;;;;56.90;23.40;;;;;;;0.82;100.00;99828.75;4957788;28;20031;-80
2020/12/30 03:31:01;;;;;;;57.03;23.63;;;;;;;0.75;100.00;99826.66;4954766;28;20023;-80
2020/12/30 03:33:26;;;;;;;69.00;25.25;;;;;;;0.72;100.00;99826.06;4931808;29;20054;-80
2020/12/30 03:35:52;;;;;;;59.08;23.10;;;;;;;0.74;100.00;99826.75;4956891;28;20040;-80
2020/12/30 03:38:17;;;;;;;70.47;24.27;;;;;;;0.75;100.00;99820.50;4958321;28;20039;-80
2020/12/30 03:40:43;;;;;;;66.75;26.33;;;;;;;0.75;100.00;99816.09;4957042;28;20035;-80
2020/12/30 03:43:08;;;;;;;59.25;23.05;;;;;;;0.75;100.00;99829.28;4958320;28;20477;-79
2020/12/30 03:45:34;;;;;;;58.78;23.40;;;;;;;0.75;100.00;99817.84;4956901;28;20035;-80
2020/12/30 03:47:59;;;;;;;64.10;24.83;;;;;;;0.73;100.00;99823.28;4957188;28;20027;-79
2020/12/30 03:50:26;;;;;;;66.90;25.25;;;;;;;0.76;100.00;99830.13;4956404;28;20045;-80
2020/12/30 03:52:51;;;;;;;62.55;24.77;;;;;;;0.74;100.00;99832.03;4956926;28;20122;-80
2020/12/30 03:55:17;;;;;;;67.18;25.10;;;;;;;0.75;100.00;99820.50;4972206;28;20070;-80
2020/12/30 03:57:42;;;;;;;61.80;24.52;;;;;;;0.81;100.00;99821.81;4957458;28;20046;-80
2020/12/30 04:00:08;;;;;;;66.13;23.63;;;;;;;0.84;100.00;99821.53;4971854;28;20038;-80
2020/12/30 04:02:33;;;;;;;61.20;23.73;;;;;;;0.78;100.00;99823.72;4956432;28;20039;-80
2020/12/30 04:04:59;;;;;;;58.67;23.70;;;;;;;0.74;100.00;99824.94;4971339;28;20139;-79
2020/12/30 04:07:24;;;;;;;59.38;23.48;;;;;;;0.68;100.00;99827.28;4956662;28;20022;-80
2020/12/30 04:09:50;;;;;;;61.10;24.35;;;;;;;0.65;100.00;99838.06;4972389;28;20031;-80
2020/12/30 04:12:15;;;;;;;63.60;22.70;;;;;;;0.64;100.00;99831.97;4957293;28;20054;-80
2020/12/30 04:14:41;;;;;;;56.67;23.42;;;;;;;0.63;100.00;99832.09;4955613;28;20034;-79
2020/12/30 04:17:06;;;;;;;63.50;23.20;;;;;;;0.59;100.00;99836.78;4956572;28;20058;-80
2020/12/30 04:19:32;;;;;;;58.33;23.95;;;;;;;0.59;100.00;99839.41;4957174;28;20493;-80
2020/12/30 04:21:57;;;;;;;60.08;23.25;;;;;;;0.48;100.00;99834.19;4972279;28;20126;-79
2020/12/30 04:24:22;;;;;;;53.38;22.88;;;;;;;0.44;100.00;99838.03;4957467;28;20433;-80
2020/12/30 04:26:48;;;;;;;62.20;22.92;;;;;;;0.38;100.00;99842.03;4956027;28;20031;-80
2020/12/30 04:29:13;;;;;;;58.28;23.20;;;;;;;0.33;100.00;99846.00;4972246;28;20041;-79
2020/12/30 04:31:39;;;;;;;61.40;24.67;;;;;;;0.28;100.00;99841.09;4972138;28;20063;-79
2020/12/30 04:34:05;;;;;;;63.65;24.45;;;;;;;0.29;100.00;99845.41;4959742;28;20059;-80
2020/12/30 04:36:31;;;;;;;63.25;24.00;;;;;;;0.28;100.00;99846.38;4957117;28;20039;-80
2020/12/30 04:38:56;;;;;;;60.58;23.20;;;;;;;0.27;100.00;99847.34;4955711;28;20113;-80
2020/12/30 04:41:31;;;;;;;70.20;25.27;;;;;;;0.20;100.00;99838.25;4957044;28;20453;-79
2020/12/30 04:44:00;;;;;;;70.30;24.85;;;;;;;0.15;100.00;99843.06;4971977;28;20031;-80
2020/12/30 04:46:27;;;;;;;60.50;22.95;;;;;;;0.13;100.00;99845.00;4955798;28;20036;-80
2020/12/30 04:48:53;;;;;;;62.90;24.23;;;;;;;0.10;100.00;99846.09;4955829;28;20023;-80
2020/12/30 04:51:19;;;;;;;68.95;26.25;;;;;;;0.12;100.00;99841.53;4937194;29;20495;-79
2020/12/30 04:53:48;;;;;;;67.22;25.67;;;;;;;0.22;100.00;99839.81;4953565;28;20066;-80
2020/12/30 04:56:16;;;;;;;74.85;25.75;;;;;;;0.23;100.00;99846.75;4952341;28;20039;-79
2020/12/30 04:58:42;;;;;;;70.32;26.27;;;;;;;0.32;100.00;99845.19;4953269;28;20047;-80
2020/12/30 05:01:10;;;;;;;67.07;25.42;;;;;;;0.38;100.00;99849.94;4968228;28;20068;-79
2020/12/30 05:03:44;;;;;;;65.18;25.73;;;;;;;0.44;100.00;99851.25;4967638;28;20027;-79
2020/12/30 05:06:11;;;;;;;72.75;25.63;;;;;;;0.51;100.00;99857.72;4953148;28;20122;-80
2020/12/30 05:08:39;;;;;;;66.90;25.38;;;;;;;0.63;100.00;99864.59;4952707;28;20041;-80
2020/12/30 05:11:05;;;;;;;69.05;26.50;;;;;;;0.68;100.00;99853.66;4951402;28;20389;-80
2020/12/30 05:13:30;;;;;;;59.88;24.77;;;;;;;0.73;100.00;99865.53;4966971;28;20050;-80
2020/12/30 05:15:57;;;;;;;59.20;23.75;;;;;;;0.82;100.00;99865.72;4950706;28;20040;-80
2020/12/30 05:18:24;;;;;;;59.92;24.60;;;;;;;0.88;100.00;99862.56;4943370;28;20039;-80
2020/12/30 05:20:50;;;;;;;61.63;25.27;;;;;;;0.92;100.00;99858.72;4971119;28;20038;-80
2020/12/30 05:23:16;;;;;;;62.38;23.60;;;;;;;0.91;100.00;99857.03;4970882;28;20035;-80
2020/12/30 05:25:43;;;;;;;56.85;25.35;;;;;;;0.92;100.00;99858.72;4970636;28;20047;-80
2020/12/30 05:28:12;;;;;;;54.80;23.73;;;;;;;0.93;100.00;99865.66;4955086;29;20081;-80
2020/12/30 05:30:40;;;;;;;60.65;24.55;;;;;;;0.94;100.00;99865.53;4939253;28;20039;-80
2020/12/30 05:33:06;;;;;;;61.33;23.75;;;;;;;0.97;100.00;99861.81;4955314;28;20511;-80
2020/12/30 05:35:32;;;;;;;60.63;24.27;;;;;;;1.00;100.00;99870.31;4955431;28;20031;-80
2020/12/30 05:37:59;;;;;;;60.08;23.83;;;;;;;1.02;100.00;99873.66;4955339;29;20066;-80
2020/12/30 05:40:25;;;;;;;56.85;23.38;;;;;;;1.07;100.00;99870.63;4959941;28;20271;-80
2020/12/30 05:42:52;;;;;;;56.30;22.52;;;;;;;1.12;100.00;99878.16;4956934;28;20039;-79
2020/12/30 05:45:22;;;;;;;55.95;23.10;;;;;;;1.15;100.00;99884.00;4956702;28;20035;-80
2020/12/30 05:47:48;;;;;;;56.08;24.17;;;;;;;1.21;100.00;99883.50;4972449;28;20518;-80
2020/12/30 05:50:23;;;;;;;54.15;22.38;;;;;;;1.26;100.00;99889.25;4959920;28;20035;-80
2020/12/30 05:52:50;;;;;;;57.35;23.23;;;;;;;1.31;100.00;99886.22;4960164;28;20043;-79
2020/12/30 05:55:15;;;;;;;51.70;22.77;;;;;;;1.34;100.00;99899.16;4958509;28;20050;-80
2020/12/30 05:57:41;;;;;;;52.67;22.83;;;;;;;1.40;100.00;99890.69;4974272;28;20027;-80
2020/12/30 06:00:09;;;;;;;59.05;23.73;;;;;;;1.43;100.00;99893.09;4974884;28;20126;-80
2020/12/30 06:02:39;;;;;;;52.83;21.90;;;;;;;1.48;100.00;99904.09;4959919;28;20414;-80
2020/12/30 06:05:15;;;;;;;53.50;22.48;;;;;;;1.56;100.00;99903.47;4959494;28;20031;-80
2020/12/30 06:07:43;;;;;;;51.38;22.77;;;;;;;1.58;100.00;99913.91;4957406;28;20035;-80
2020/12/30 06:10:11;;;;;;;57.15;22.75;;;;;;;1.64;100.00;99918.66;4956761;28;20027;-80
2020/12/30 06:12:42;;;;;;;60.03;22.77;;;;;;;1.69;100.00;99917.28;4957789;28;20458;-80
2020/12/30 06:15:08;;;;;;;52.42;21.65;;;;;;;1.75;100.00;99915.91;4956860;28;20560;-80
2020/12/30 06:17:42;;;;;;;48.88;20.52;;;;;;;1.79;100.00;99917.31;4957839;28;20027;-80
2020/12/30 06:20:10;;;;;;;51.72;21.98;;;;;;;1.84;100.00;99928.34;4974039;28;20027;-80
2020/12/30 06:22:38;;;;;;;50.97;20.90;;;;;;;1.80;100.00;99925.13;4958904;28;20545;-81
2020/12/30 06:25:04;;;;;;;48.75;20.98;;;;;;;1.85;100.00;99923.88;4973681;28;20378;-80
2020/12/30 06:27:34;;;;;;;48.80;20.05;;;;;;;1.85;100.00;99929.19;4957924;28;20046;-81
2020/12/30 06:29:59;;;;;;;49.10;20.90;;;;;;;1.80;100.00;99930.41;4972800;28;20039;-80
2020/12/30 06:32:28;;;;;;;49.95;21.00;;;;;;;1.79;100.00;99928.75;4944312;28;20290;-81
2020/12/30 06:34:54;;;;;;;49.40;21.20;;;;;;;1.79;100.00;99927.91;4972964;28;20070;-80
2020/12/30 06:37:31;;;;;;;50.58;22.65;;;;;;;1.79;100.00;99935.84;4972349;28;20039;-80
2020/12/30 06:40:23;;;;;;;50.13;21.38;;;;;;;1.79;100.00;99936.69;4956534;28;20034;-81
2020/12/30 06:42:55;;;;;;;52.00;21.08;;;;;;;1.80;100.00;99943.63;4943458;29;20035;-80
2020/12/30 06:45:48;;;;;;;47.42;20.95;;;;;;;1.80;100.00;99946.28;4974877;28;20019;-80
2020/12/30 06:48:14;;;;;;;53.42;24.00;;;;;;;1.83;100.00;99944.34;4972923;28;20063;-79
2020/12/30 06:50:40;;;;;;;51.80;21.08;;;;;;;1.83;100.00;99957.56;4973705;28;20027;-78
2020/12/30 06:53:24;;;;;;;51.10;21.15;;;;;;;1.85;100.00;99961.75;4969006;28;20039;-78
2020/12/30 06:55:50;;;;;;;45.22;19.00;;;;;;;1.95;100.00;99961.81;4942597;28;20043;-78
2020/12/30 06:58:42;;;;;;;50.65;19.98;;;;;;;1.91;100.00;99976.25;4954616;28;20074;-78
2020/12/30 07:01:07;;;;;;;49.00;21.92;;;;;;;1.87;100.00;99974.88;4954112;28;20043;-77
2020/12/30 07:03:33;;;;;;;51.80;21.02;;;;;;;1.83;100.00;99987.50;4954490;28;20102;-79
2020/12/30 07:06:33;;;;;;;49.78;21.83;;;;;;;1.80;100.00;99985.13;4968882;28;20448;-78
2020/12/30 07:09:06;;;;;;;53.42;22.58;;;;;;;1.80;100.00;99993.03;4954665;28;20031;-80
2020/12/30 07:11:42;;;;;;;49.65;20.88;;;;;;;1.86;100.00;99987.25;4969797;28;20118;-78
2020/12/30 07:14:10;;;;;;;47.95;21.35;;;;;;;1.88;100.00;99989.75;4953817;28;20047;-80
2020/12/30 07:16:37;;;;;;;54.67;23.80;;;;;;;1.83;100.00;99992.81;4961303;28;20086;-80
2020/12/30 07:19:09;;;;;;;52.25;21.90;;;;;;;1.78;100.00;99998.47;4976388;28;20083;-79
2020/12/30 07:21:47;;;;;;;56.83;21.83;;;;;;;1.72;100.00;100001.66;4972606;28;20123;-79
2020/12/30 07:24:24;;;;;;;60.25;23.35;;;;;;;1.71;100.00;99999.16;4965262;28;20050;-80
2020/12/30 07:26:53;;;;;;;53.13;22.50;;;;;;;1.72;100.00;100011.41;4944095;29;20034;-78
2020/12/30 07:29:19;;;;;;;49.10;20.70;;;;;;;1.70;100.00;100010.66;4955890;28;20035;-79
2020/12/30 07:31:48;;;;;;;54.13;22.17;;;;;;;1.74;100.00;100010.28;4971039;28;20397;-81
2020/12/30 07:34:16;;;;;;;46.50;20.40;;;;;;;1.72;100.00;100009.59;4963960;28;20035;-80
2020/12/30 07:36:43;;;;;;;50.80;22.23;;;;;;;1.77;100.00;100010.03;4958125;28;20543;-81
2020/12/30 07:39:09;;;;;;;48.92;20.58;;;;;;;1.73;100.00;100024.47;4960353;28;20031;-81
2020/12/30 07:41:36;;;;;;;49.15;20.50;;;;;;;1.78;100.00;100019.63;4976657;28;20617;-82
2020/12/30 07:44:04;;;;;;;54.38;22.02;;;;;;;1.76;100.00;100023.41;4976240;28;20023;-84
2020/12/30 07:46:30;;;;;;;55.28;22.30;;;;;;;1.83;100.00;100021.06;4958369;28;20031;-83
2020/12/30 07:49:08;;;;;;;51.72;21.13;;;;;;;1.84;100.00;100022.72;4959387;28;20031;-83
2020/12/30 07:51:34;;;;;;;52.42;20.90;;;;;;;1.83;100.00;100026.34;4974682;28;20038;-84
2020/12/30 07:53:59;;;;;;;50.30;19.80;;;;;;;1.93;100.00;100043.94;4976823;28;20039;-83
2020/12/30 07:56:26;;;;;;;58.28;21.23;;;;;;;1.91;100.00;100042.38;4945589;29;20058;-83
2020/12/30 07:58:52;;;;;;;43.00;18.17;;;;;;;1.90;100.00;100051.28;4956365;28;20497;-82
2020/12/30 08:01:18;;;;;;;44.08;19.17;;;;;;;1.95;100.00;100054.38;4955885;28;20038;-82
2020/12/30 08:03:44;;;;;;;49.90;20.45;;;;;;;1.90;100.00;100061.88;4972175;28;20034;-82
2020/12/30 08:06:09;;;;;;;60.95;27.10;;;;;;;1.89;100.00;100063.69;4969779;28;20035;-83
2020/12/30 08:08:49;;;;;;;50.00;21.30;;;;;;;1.87;100.00;100064.78;4954144;28;20035;-84
2020/12/30 08:11:20;;;;;;;46.47;19.45;;;;;;;1.84;100.00;100063.22;4970675;28;20041;-82
2020/12/30 08:13:46;;;;;;;47.05;20.52;;;;;;;1.91;100.00;100075.00;4970954;28;20386;-83
2020/12/30 08:16:14;;;;;;;51.47;20.40;;;;;;;1.95;100.00;100079.03;4969782;28;20477;-84
2020/12/30 08:18:50;;;;;;;52.30;20.00;;;;;;;1.99;100.00;100080.44;4969963;28;20035;-84
2020/12/30 08:21:21;;;;;;;50.13;20.05;;;;;;;2.02;100.00;100079.38;4955032;28;20035;-83
2020/12/30 08:23:46;;;;;;;41.60;18.08;;;;;;;2.08;100.00;100089.44;4970768;28;20511;-83
2020/12/30 08:26:12;;;;;;;43.10;18.80;;;;;;;2.15;100.00;100081.78;4953104;28;20063;-83
2020/12/30 08:28:39;;;;;;;49.92;19.08;;;;;;;2.18;100.00;100092.97;4937228;29;20063;-82
2020/12/30 08:31:14;;;;;;;43.53;18.80;;;;;;;2.18;100.00;100097.41;4952857;28;20034;-83
2020/12/30 08:33:41;;;;;;;;;;;;;;;2.22;100.00;100093.56;4953534;28;20027;-83
2020/12/30 08:36:19;;;;;;;48.63;18.15;;;;;;;2.21;100.00;100097.16;4952815;28;19914;-82
2020/12/30 08:38:49;;;;;;;46.72;19.95;;;;;;;2.27;100.00;100108.06;4953743;28;20055;-86
2020/12/30 08:41:18;;;;;;;39.10;18.10;;;;;;;2.31;100.00;100111.28;4936406;29;20027;-84
2020/12/30 08:43:49;;;;;;;47.13;19.73;;;;;;;2.36;100.00;100113.53;4967737;28;20035;-84
2020/12/30 08:46:22;;;;;;;49.13;20.15;;;;;;;2.53;100.00;100112.94;4953042;28;20053;-83
2020/12/30 08:48:50;;;;;;;42.95;18.58;;;;;;;2.51;100.00;100120.16;4952743;28;20095;-83
2020/12/30 08:51:36;;;;;;;50.75;19.80;;;;;;;2.55;100.00;100124.22;4951460;28;20038;-82
2020/12/30 08:54:13;;;;;;;50.10;19.65;;;;;;;2.57;100.00;100124.94;4953285;28;20105;-83
2020/12/30 08:56:41;;;;;;;47.95;19.05;;;;;;;2.60;100.00;100124.66;4973710;28;20031;-82
2020/12/30 08:59:07;;;;;;;48.70;20.23;;;;;;;2.64;100.00;100126.06;4957063;28;20028;-84
2020/12/30 09:01:32;;;;;;;47.50;19.98;;;;;;;2.69;100.00;100131.81;4957009;28;20027;-85
2020/12/30 09:04:11;;;;;;;53.00;20.42;;;;;;;2.73;100.00;100130.56;4956092;28;20055;-84
2020/12/30 09:06:37;;;;;;;44.13;18.77;;;;;;;2.78;100.00;100138.97;4924817;29;20078;-85
2020/12/30 09:09:10;;;;;;;45.22;19.83;;;;;;;2.83;100.00;100141.22;4957767;28;20105;-84
2020/12/30 09:11:43;;;;;;;47.33;19.30;;;;;;;2.84;100.00;100149.00;4973037;28;20031;-85
2020/12/30 09:14:13;;;;;;;49.90;20.50;;;;;;;2.88;100.00;100141.66;4956842;28;20032;-85
2020/12/30 09:17:01;;;;;;;50.85;20.55;;;;;;;2.92;100.00;100153.66;4973029;28;20042;-84
2020/12/30 09:19:26;;;;;;;56.05;20.48;;;;;;;2.91;100.00;100153.78;4972891;28;20035;-85
2020/12/30 09:22:04;;;;;;;51.17;20.40;;;;;;;2.97;100.00;100156.75;4958957;28;20500;-84
2020/12/30 09:24:36;;;;;;;48.80;21.23;;;;;;;2.97;100.00;100158.56;4976734;28;20031;-82
2020/12/30 09:27:21;;;;;;;51.33;21.95;;;;;;;2.97;100.00;100158.56;4942570;29;20512;-82
2020/12/30 09:30:10;;;;;;;55.35;21.30;;;;;;;3.00;100.00;100160.91;4955771;28;20087;-83
2020/12/30 09:32:36;;;;;;;48.65;20.13;;;;;;;3.04;100.00;100167.63;4956970;28;20035;-82
2020/12/30 09:35:05;;;;;;;49.30;21.33;;;;;;;3.07;100.00;100167.38;4957034;28;20035;-82
2020/12/30 09:37:30;;;;;;;48.95;20.25;;;;;;;3.08;100.00;100174.34;4956595;28;20031;-81
2020/12/30 09:40:05;;;;;;;54.80;21.45;;;;;;;3.14;100.00;100175.63;4956861;28;20504;-82
2020/12/30 09:42:31;;;;;;;45.28;21.58;;;;;;;3.21;100.00;100166.97;4958160;28;20039;-82
2020/12/30 09:44:57;;;;;;;56.67;22.83;;;;;;;3.29;100.00;100171.63;4961917;28;20027;-81
2020/12/30 09:47:22;;;;;;;49.42;21.05;;;;;;;3.34;100.00;100175.53;4977895;28;20339;-81
2020/12/30 09:49:48;;;;;;;62.90;23.73;;;;;;;3.34;100.00;100172.88;4945681;29;20503;-79
2020/12/30 09:52:14;;;;;;;80.43;31.23;;;;;;;3.27;100.00;100174.41;4963298;28;20095;-80
2020/12/30 09:54:39;;;;;;;52.40;22.63;;;;;;;3.26;100.00;100183.34;4963547;28;20059;-81
2020/12/30 09:57:05;;;;;;;55.65;22.25;;;;;;;3.29;100.00;100172.44;4965455;28;20090;-80
2020/12/30 09:59:30;;;;;;;54.17;21.73;;;;;;;3.37;100.00;100180.56;4981800;28;20032;-80
2020/12/30 10:01:56;;;;;;;49.03;20.35;;;;;;;3.50;100.00;100187.44;4982489;28;20034;-80
2020/12/30 10:04:21;;;;;;;49.85;21.08;;;;;;;3.52;100.00;100186.31;4963864;29;20031;-81
2020/12/30 10:06:47;;;;;;;50.92;21.35;;;;;;;3.38;100.00;100192.84;4976255;28;20489;-82
2020/12/30 10:09:13;;;;;;;57.35;23.27;;;;;;;3.37;100.00;100193.84;4960697;28;20504;-81
2020/12/30 10:11:39;;;;;;;55.90;22.45;;;;;;;3.47;100.00;100191.19;4960772;28;20027;-80
2020/12/30 10:14:04;;;;;;;54.88;21.80;;;;;;;3.44;100.00;100195.94;4959084;28;20027;-81
2020/12/30 10:16:31;;;;;;;58.05;22.50;;;;;;;3.42;100.00;100190.78;4959828;28;20082;-81
2020/12/30 10:18:58;;;;;;;60.50;24.08;;;;;;;3.48;100.00;100200.00;4975851;28;20043;-81
2020/12/30 10:21:28;;;;;;;53.83;22.85;;;;;;;3.51;100.00;100187.28;4960536;28;20035;-81
2020/12/30 10:23:53;;;;;;;51.53;19.90;;;;;;;3.63;100.00;100198.63;4960880;28;20404;-81
2020/12/30 10:26:19;;;;;;;50.15;21.13;;;;;;;3.63;100.00;100195.97;4975760;28;20039;-81
2020/12/30 10:28:44;;;;;;;56.20;21.80;;;;;;;3.67;100.00;100199.19;4960215;28;20027;-81
2020/12/30 10:31:12;;;;;;;53.20;21.40;;;;;;;3.72;100.00;100208.41;4975607;28;20034;-81
2020/12/30 10:33:38;;;;;;;59.22;22.63;;;;;;;3.71;100.00;100204.06;4973591;28;20057;-81
2020/12/30 10:36:06;;;;;;;55.13;22.00;;;;;;;3.76;100.00;100201.84;4958297;28;20094;-81
2020/12/30 10:38:32;;;;;;;48.97;21.30;;;;;;;3.95;100.00;100202.84;4955128;28;20035;-81
2020/12/30 10:40:57;;;;;;;49.95;21.27;;;;;;;3.81;100.00;100196.13;4957538;29;20038;-82
2020/12/30 10:43:23;;;;;;;48.03;20.58;;;;;;;3.82;100.00;100195.16;4942395;29;20512;-81
2020/12/30 10:45:48;;;;;;;49.13;20.42;;;;;;;3.84;100.00;100196.69;4954007;28;20042;-82
2020/12/30 10:48:14;;;;;;;49.28;21.80;;;;;;;4.01;100.00;100197.78;4956620;28;20035;-82
2020/12/30 10:50:39;;;;;;;58.83;24.38;;;;;;;4.21;100.00;100192.47;4955229;28;20078;-82
2020/12/30 10:53:05;;;;;;;72.90;26.02;;;;;;;4.34;100.00;100199.19;4958711;28;20027;-82
2020/12/30 10:55:30;;;;;;;49.47;21.15;;;;;;;4.52;100.00;100195.78;4955774;28;20030;-82
2020/12/30 10:57:56;;;;;;;40.63;18.70;;;;;;;4.70;100.00;100194.06;4957664;28;20099;-83
2020/12/30 11:00:21;;;;;;;36.40;16.75;;;;;;;4.75;100.00;100190.97;4957434;28;20031;-83
2020/12/30 11:02:47;;;;;;;36.53;16.55;;;;;;;4.67;100.00;100199.69;4956669;28;20055;-82
2020/12/30 11:05:12;;;;;;;35.58;15.88;;;;;;;4.60;100.00;100198.56;4969299;28;20087;-82
2020/12/30 11:07:38;;;;;;;37.65;16.60;;;;;;;4.61;100.00;100198.41;4956313;28;20042;-82
2020/12/30 11:10:04;;;;;;;53.30;17.23;;;;;;;4.76;100.00;100195.31;4960127;28;20046;-81
2020/12/30 11:12:30;;;;;;;40.22;15.85;;;;;;;4.77;100.00;100205.81;4976222;28;20068;-79
2020/12/30 11:14:55;;;;;;;34.67;16.90;;;;;;;4.84;100.00;100206.91;4960767;28;20035;-81
2020/12/30 11:17:21;;;;;;;43.22;16.70;;;;;;;4.87;100.00;100201.31;4962025;28;20046;-82